Time;durP1;ratioP1;P1;durP2;ratioP2;P2;SDS_P1;SDS_P2;PMS_P1;PMS_P2;Temp;Humidity;BMP_temperature;BMP_pressure;BME280_temperature;BME280_humidity;BME280_pressure;Samples;Min_cycle;Max_cycle;Signal;HPM_P1;HPM_P2
2023/09/21 00:00:47;;;;;;;1.40;1.30;;;;;;;21.04;62.33;99936.59;4986442;28;20050;-59
2023/09/21 00:03:13;;;;;;;1.52;1.42;;;;;;;21.04;62.03;99933.88;4992529;28;20038;-59
2023/09/21 00:05:40;;;;;;;1.27;1.17;;;;;;;21.04;62.16;99927.63;4984878;28;20027;-59
2023/09/21 00:08:06;;;;;;;1.67;1.50;;;;;;;21.04;62.47;99927.63;4987937;28;20027;-59
2023/09/21 00:10:32;;;;;;;1.40;1.30;;;;;;;21.03;62.52;99929.47;4989154;28;20034;-59
2023/09/21 00:12:59;;;;;;;1.67;1.25;;;;;;;21.04;62.09;99914.94;4988737;28;20036;-59
2023/09/21 00:15:29;;;;;;;2.17;1.17;;;;;;;21.03;62.36;99923.22;4988201;28;20042;-59
2023/09/21 00:17:56;;;;;;;2.00;1.40;;;;;;;21.03;62.30;99917.81;4989584;28;20113;-59
2023/09/21 00:20:23;;;;;;;2.38;1.23;;;;;;;21.02;62.44;99917.00;4988271;28;20029;-59
2023/09/21 00:22:59;;;;;;;2.45;1.75;;;;;;;21.03;62.12;99917.81;4990629;28;20121;-59
2023/09/21 00:25:28;;;;;;;1.30;1.20;;;;;;;21.03;62.18;99905.13;4987152;28;20102;-59
2023/09/21 00:27:53;;;;;;;1.73;1.30;;;;;;;21.02;62.22;99903.47;4990761;28;20033;-59
2023/09/21 00:30:19;;;;;;;1.73;1.40;;;;;;;21.02;62.10;99900.75;4989986;28;20485;-59
2023/09/21 00:32:44;;;;;;;1.75;1.63;;;;;;;21.02;62.36;99900.75;4983774;28;20397;-59
2023/09/21 00:35:11;;;;;;;1.70;1.58;;;;;;;21.01;61.98;99888.22;4994049;28;20069;-59
2023/09/21 00:37:38;;;;;;;1.75;1.40;;;;;;;21.01;61.80;99888.22;4984033;28;20035;-59
2023/09/21 00:40:24;;;;;;;2.20;1.40;;;;;;;21.02;62.52;99884.50;4984486;28;20080;-59
2023/09/21 00:42:51;;;;;;;1.67;1.30;;;;;;;21.01;61.96;99877.41;4988714;28;20019;-59
2023/09/21 00:45:18;;;;;;;1.30;1.20;;;;;;;21.01;62.43;99880.13;4988403;28;20174;-59
2023/09/21 00:47:51;;;;;;;1.55;1.45;;;;;;;21.01;62.12;99876.56;4990680;28;20023;-59
2023/09/21 00:50:23;;;;;;;2.28;1.58;;;;;;;21.00;62.41;99874.88;4987966;28;20034;-59
2023/09/21 00:52:53;;;;;;;1.50;1.40;;;;;;;21.01;62.44;99874.69;4989335;28;20419;-59
2023/09/21 00:55:26;;;;;;;1.75;1.45;;;;;;;20.99;62.13;99863.22;4989089;28;20045;-59
2023/09/21 00:57:55;;;;;;;1.65;1.35;;;;;;;21.00;62.45;99858.66;4985391;28;20027;-59
2023/09/21 01:00:26;;;;;;;1.67;1.25;;;;;;;20.99;62.37;99857.81;4985235;28;20034;-59
2023/09/21 01:02:53;;;;;;;;;;;;;;;21.07;62.19;99844.16;4990840;28;20046;-59
2023/09/21 01:05:21;;;;;;;1.63;1.52;;;;;;;21.00;62.04;99848.69;4985528;28;19914;-59
2023/09/21 01:07:48;;;;;;;1.70;1.50;;;;;;;20.99;62.39;99849.69;4991431;28;20085;-59
2023/09/21 01:10:14;;;;;;;1.63;1.40;;;;;;;20.99;62.30;99841.56;4989363;28;20026;-59
2023/09/21 01:12:49;;;;;;;2.22;1.30;;;;;;;20.98;62.25;99834.50;4983707;28;20031;-59
2023/09/21 01:15:15;;;;;;;1.88;1.77;;;;;;;20.98;62.28;99841.75;4991461;28;20077;-58
2023/09/21 01:17:44;;;;;;;1.63;1.38;;;;;;;20.98;61.88;99834.50;4982715;28;20117;-59
2023/09/21 01:20:17;;;;;;;1.25;1.20;;;;;;;20.98;62.30;99834.50;4985986;28;20039;-58
2023/09/21 01:22:50;;;;;;;1.50;1.40;;;;;;;20.98;61.92;99820.97;4986442;28;20089;-58
2023/09/21 01:25:15;;;;;;;1.10;1.00;;;;;;;20.98;62.28;99828.22;4987463;28;20085;-58
2023/09/21 01:27:42;;;;;;;1.40;1.30;;;;;;;20.97;62.42;99816.56;4988007;28;20122;-58
2023/09/21 01:30:12;;;;;;;1.55;1.38;;;;;;;20.98;61.94;99814.69;4987591;28;20099;-58
2023/09/21 01:32:40;;;;;;;2.33;1.58;;;;;;;20.96;62.34;99817.63;4988030;28;20464;-58
2023/09/21 01:35:07;;;;;;;2.13;1.10;;;;;;;20.97;62.00;99810.34;4989467;28;20023;-58
2023/09/21 01:37:33;;;;;;;1.58;1.38;;;;;;;20.97;62.06;99808.47;4984592;28;20043;-58
2023/09/21 01:39:58;;;;;;;1.75;1.45;;;;;;;20.96;61.91;99804.09;4991955;28;20061;-58
2023/09/21 01:42:25;;;;;;;2.70;1.38;;;;;;;20.97;62.34;99803.06;4988891;28;20056;-58
2023/09/21 01:44:51;;;;;;;2.22;1.90;;;;;;;20.96;62.21;99801.38;4981821;28;20031;-58
2023/09/21 01:47:20;;;;;;;1.30;1.20;;;;;;;20.97;62.13;99794.09;4993615;28;20396;-58
2023/09/21 01:49:46;;;;;;;1.50;1.35;;;;;;;20.96;62.08;99793.28;4983704;28;20117;-58
2023/09/21 01:52:11;;;;;;;1.50;1.23;;;;;;;20.95;61.80;99790.75;4990548;28;20134;-59
2023/09/21 01:54:38;;;;;;;1.73;1.20;;;;;;;20.96;61.98;99793.28;4986681;28;20109;-58
2023/09/21 01:57:08;;;;;;;1.63;1.50;;;;;;;20.95;62.18;99786.16;4984651;28;20044;-58
2023/09/21 01:59:33;;;;;;;1.58;1.30;;;;;;;20.96;62.19;99790.56;4984120;28;20031;-59
2023/09/21 02:01:58;;;;;;;1.50;1.40;;;;;;;20.95;61.79;99790.75;4986520;28;20051;-58
2023/09/21 02:04:24;;;;;;;1.42;1.23;;;;;;;20.96;61.53;99787.84;4986427;28;20053;-58
2023/09/21 02:06:49;;;;;;;0.77;0.77;;;;;;;20.96;61.69;99782.44;4986785;28;20035;-58
2023/09/21 02:09:15;;;;;;;1.48;1.25;;;;;;;20.95;62.05;99780.75;4989480;28;20035;-58
2023/09/21 02:11:40;;;;;;;1.38;1.27;;;;;;;20.95;61.71;99778.06;4986780;28;20456;-59
2023/09/21 02:14:06;;;;;;;1.55;1.35;;;;;;;20.96;61.43;99779.75;4990840;28;20385;-58
2023/09/21 02:16:33;;;;;;;1.23;1.13;;;;;;;20.95;61.71;99782.63;4987667;28;20049;-58
2023/09/21 02:18:58;;;;;;;1.27;1.17;;;;;;;20.95;61.85;99774.50;4987704;28;20029;-59
2023/09/21 02:21:24;;;;;;;1.13;1.02;;;;;;;20.94;61.68;99773.66;4988666;28;20492;-58
2023/09/21 02:23:49;;;;;;;2.90;1.27;;;;;;;20.93;61.61;99777.41;4982870;28;20069;-58
2023/09/21 02:26:15;;;;;;;1.65;1.20;;;;;;;20.94;61.66;99770.13;5003831;28;20486;-58
2023/09/21 02:28:40;;;;;;;1.20;1.10;;;;;;;20.94;61.99;99770.94;4986998;28;20465;-58
2023/09/21 02:31:12;;;;;;;1.77;1.48;;;;;;;20.94;61.62;99764.72;4986712;28;20427;-58
2023/09/21 02:33:38;;;;;;;1.23;1.13;;;;;;;20.94;61.46;99754.72;4985518;28;20397;-58
2023/09/21 02:36:12;;;;;;;1.20;0.90;;;;;;;20.94;62.02;99762.81;4984612;28;20027;-58
2023/09/21 02:38:37;;;;;;;1.92;1.38;;;;;;;20.93;61.37;99755.75;4991738;28;20038;-58
2023/09/21 02:41:03;;;;;;;1.38;1.00;;;;;;;20.94;61.48;99753.88;4985548;28;20033;-59
2023/09/21 02:43:29;;;;;;;1.30;1.20;;;;;;;20.93;61.60;99761.16;4987893;28;20030;-58
2023/09/21 02:45:54;;;;;;;1.55;1.40;;;;;;;20.93;61.88;99758.47;4981426;28;20058;-59
2023/09/21 02:48:19;;;;;;;1.60;1.30;;;;;;;20.93;61.88;99750.34;4991477;28;20038;-59
2023/09/21 02:50:48;;;;;;;1.42;1.30;;;;;;;20.92;61.69;99751.34;4987908;28;20035;-59
2023/09/21 02:53:14;;;;;;;1.85;1.50;;;;;;;20.92;62.07;99753.25;4989339;28;20058;-58
2023/09/21 02:55:40;;;;;;;1.27;1.10;;;;;;;20.92;61.81;99756.78;4988152;28;20057;-58
2023/09/21 02:58:10;;;;;;;1.27;1.05;;;;;;;20.92;61.34;99751.34;4986470;28;20038;-59
2023/09/21 03:00:42;;;;;;;2.03;1.30;;;;;;;20.92;61.44;99742.41;4992518;28;20070;-58
2023/09/21 03:03:10;;;;;;;1.80;1.10;;;;;;;20.93;61.38;99754.94;4990680;28;20100;-58
2023/09/21 03:05:38;;;;;;;1.20;1.10;;;;;;;20.92;61.47;99737.84;4992214;28;20034;-58
2023/09/21 03:08:05;;;;;;;1.52;1.23;;;;;;;20.92;61.88;99740.53;4988031;28;20054;-59
2023/09/21 03:10:31;;;;;;;1.50;1.17;;;;;;;20.91;61.30;99730.75;4992828;28;20065;-58
2023/09/21 03:12:56;;;;;;;1.60;1.25;;;;;;;20.92;61.73;99737.84;4990817;28;20038;-58
2023/09/21 03:15:22;;;;;;;1.30;1.20;;;;;;;20.92;61.43;99737.00;4984513;28;20437;-59
2023/09/21 03:17:52;;;;;;;1.40;1.30;;;;;;;20.91;61.76;99736.19;4994901;28;20117;-58
2023/09/21 03:20:32;;;;;;;1.35;1.20;;;;;;;20.91;61.82;99741.59;4988437;28;20106;-59
2023/09/21 03:22:59;;;;;;;1.25;1.15;;;;;;;20.91;61.35;99735.34;4986083;28;20076;-58
2023/09/21 03:25:25;;;;;;;1.58;1.30;;;;;;;20.91;61.73;99735.34;4991603;28;20041;-58
2023/09/21 03:28:10;;;;;;;1.27;1.17;;;;;;;20.91;61.69;99736.19;4988175;28;20416;-59
2023/09/21 03:30:38;;;;;;;2.85;1.23;;;;;;;20.91;61.63;99733.47;4997444;28;20121;-58
2023/09/21 03:33:05;;;;;;;1.27;1.10;;;;;;;20.91;61.36;99729.94;4991140;28;20041;-59
2023/09/21 03:35:31;;;;;;;1.15;1.05;;;;;;;20.91;61.36;99730.75;4988396;28;20043;-59
2023/09/21 03:37:57;;;;;;;1.20;1.10;;;;;;;20.91;61.28;99730.75;4991628;28;20069;-58
2023/09/21 03:40:25;;;;;;;1.42;1.20;;;;;;;20.89;61.69;99725.53;4987785;28;20441;-58
2023/09/21 03:42:51;;;;;;;1.35;1.25;;;;;;;20.89;61.71;99728.25;4991555;28;20040;-59
2023/09/21 03:45:20;;;;;;;1.67;1.33;;;;;;;20.90;61.34;99726.38;4990463;28;20401;-58
2023/09/21 03:47:46;;;;;;;1.23;1.10;;;;;;;20.90;61.93;99726.38;4989523;28;20030;-58
2023/09/21 03:50:12;;;;;;;1.08;1.00;;;;;;;20.89;61.36;99712.00;4992605;28;20038;-59
2023/09/21 03:52:42;;;;;;;2.08;1.17;;;;;;;20.89;61.23;99708.47;4986850;28;20376;-58
2023/09/21 03:55:10;;;;;;;1.92;1.05;;;;;;;20.88;61.65;99713.03;4991306;28;20057;-58
2023/09/21 03:57:37;;;;;;;2.67;1.38;;;;;;;20.89;61.31;99713.88;4991162;28;20423;-58
2023/09/21 04:00:12;;;;;;;1.10;1.00;;;;;;;20.89;61.88;99705.78;4986763;28;20035;-58
2023/09/21 04:02:38;;;;;;;1.23;1.13;;;;;;;20.89;61.72;99705.78;4994251;28;20054;-58
2023/09/21 04:05:04;;;;;;;2.90;1.65;;;;;;;20.88;61.49;99702.19;4986455;28;20480;-59
2023/09/21 04:07:29;;;;;;;1.20;1.10;;;;;;;20.89;61.67;99697.66;4987480;28;20042;-58
2023/09/21 04:09:55;;;;;;;1.30;1.20;;;;;;;20.88;61.69;99694.09;4991838;28;20484;-59
2023/09/21 04:12:20;;;;;;;1.30;1.08;;;;;;;20.88;61.34;99698.66;4986789;28;20365;-58
2023/09/21 04:14:46;;;;;;;1.35;1.15;;;;;;;20.88;61.32;99698.66;4989451;28;20035;-58
2023/09/21 04:17:11;;;;;;;1.85;1.20;;;;;;;20.88;61.56;99709.50;4988230;28;20389;-58
2023/09/21 04:19:37;;;;;;;1.30;1.20;;;;;;;20.87;61.01;99700.53;4989281;28;20026;-59
2023/09/21 04:22:02;;;;;;;1.20;1.10;;;;;;;20.88;61.46;99704.91;4992539;28;20029;-58
2023/09/21 04:24:28;;;;;;;1.25;1.10;;;;;;;20.87;61.61;99707.84;4990307;28;20065;-58
2023/09/21 04:26:53;;;;;;;1.13;0.90;;;;;;;20.88;61.78;99698.66;4988043;28;20084;-58
2023/09/21 04:29:18;;;;;;;1.30;1.20;;;;;;;20.88;61.25;99698.66;4989730;28;20057;-58
2023/09/21 04:31:44;;;;;;;1.13;1.02;;;;;;;20.89;61.27;99705.78;4984926;28;20077;-58
2023/09/21 04:34:10;;;;;;;1.27;1.17;;;;;;;20.87;61.67;99705.13;4991063;28;20034;-58
2023/09/21 04:36:35;;;;;;;1.63;1.45;;;;;;;20.87;61.21;99694.31;4988364;28;20038;-58
2023/09/21 04:39:00;;;;;;;2.22;1.20;;;;;;;20.86;61.14;99693.44;4988122;28;20113;-59
2023/09/21 04:41:30;;;;;;;1.33;1.23;;;;;;;20.86;61.21;99690.75;4990909;28;20504;-58
2023/09/21 04:43:56;;;;;;;1.48;1.00;;;;;;;20.87;61.34;99692.44;4986721;28;20035;-59
2023/09/21 04:46:21;;;;;;;1.30;1.20;;;;;;;20.87;61.61;99686.19;4991790;28;20066;-58
2023/09/21 04:48:47;;;;;;;1.63;1.25;;;;;;;20.86;61.34;99684.50;4987990;28;20113;-58
2023/09/21 04:51:14;;;;;;;2.08;1.20;;;;;;;20.86;61.52;99687.19;4984447;28;20481;-58
2023/09/21 04:53:41;;;;;;;1.77;1.20;;;;;;;20.86;61.13;99681.78;4983262;28;20424;-58
2023/09/21 04:56:06;;;;;;;1.02;0.88;;;;;;;20.86;61.44;99687.19;4988949;28;20022;-58
2023/09/21 04:58:32;;;;;;;1.35;1.23;;;;;;;20.87;61.66;99686.19;4986486;28;20503;-58
2023/09/21 05:00:57;;;;;;;0.90;0.90;;;;;;;20.86;61.35;99688.03;4991509;28;20453;-59
2023/09/21 05:03:22;;;;;;;1.23;1.13;;;;;;;20.86;61.53;99681.78;4985742;28;20560;-58
2023/09/21 05:05:49;;;;;;;1.65;1.40;;;;;;;20.86;61.68;99682.63;4990635;28;20492;-58
2023/09/21 05:08:14;;;;;;;1.45;1.10;;;;;;;20.86;61.40;99684.50;4993702;28;20031;-59
2023/09/21 05:10:42;;;;;;;1.40;1.30;;;;;;;20.85;61.48;99682.84;4989377;28;20483;-58
2023/09/21 05:13:08;;;;;;;1.38;1.05;;;;;;;20.86;61.68;99679.91;4986952;28;20034;-59
2023/09/21 05:15:33;;;;;;;1.35;1.23;;;;;;;20.85;61.59;99675.56;4989674;28;20050;-58
2023/09/21 05:17:58;;;;;;;1.67;1.48;;;;;;;20.85;61.67;99670.13;4984332;28;20033;-58
2023/09/21 05:20:24;;;;;;;1.00;1.00;;;;;;;20.85;61.82;99662.03;4984558;28;20041;-58
2023/09/21 05:22:51;;;;;;;1.30;1.20;;;;;;;20.86;61.77;99668.25;4987938;28;20033;-58
2023/09/21 05:25:16;;;;;;;1.33;1.23;;;;;;;20.86;61.73;99665.56;4988485;28;20026;-59
2023/09/21 05:27:42;;;;;;;1.13;0.93;;;;;;;20.86;61.35;99673.69;4989207;28;20081;-58
2023/09/21 05:30:09;;;;;;;1.00;0.90;;;;;;;20.86;61.25;99676.38;4983622;28;20023;-59
2023/09/21 05:32:35;;;;;;;1.35;1.20;;;;;;;20.85;61.47;99666.59;4991044;28;20077;-58
2023/09/21 05:35:02;;;;;;;1.40;1.30;;;;;;;20.85;61.62;99672.03;4985485;28;20073;-58
2023/09/21 05:37:29;;;;;;;1.15;1.05;;;;;;;20.85;61.43;99672.03;4980988;28;20034;-58
2023/09/21 05:39:54;;;;;;;1.17;1.02;;;;;;;20.85;61.29;99675.56;4990481;28;20109;-58
2023/09/21 05:42:23;;;;;;;1.90;1.00;;;;;;;20.86;61.33;99668.25;4982187;28;20030;-58
2023/09/21 05:44:49;;;;;;;1.17;1.02;;;;;;;20.85;61.70;99672.03;4993785;28;20030;-58
2023/09/21 05:47:14;;;;;;;1.02;1.00;;;;;;;20.85;61.54;99666.59;4990626;28;20053;-59
2023/09/21 05:49:39;;;;;;;1.50;1.40;;;;;;;20.86;61.80;99673.69;4987070;28;20052;-59
2023/09/21 05:52:11;;;;;;;1.45;1.10;;;;;;;20.86;61.71;99673.69;4991328;28;20038;-59
2023/09/21 05:54:37;;;;;;;1.23;1.13;;;;;;;20.86;61.45;99662.84;4990307;28;20109;-58
2023/09/21 05:57:03;;;;;;;1.60;1.42;;;;;;;20.86;61.76;99673.69;4985301;28;20072;-58
2023/09/21 05:59:31;;;;;;;1.23;1.00;;;;;;;20.85;61.70;99667.44;4985137;28;20034;-59
2023/09/21 06:01:57;;;;;;;1.30;1.20;;;;;;;20.85;61.59;99672.84;4987876;28;20049;-58
2023/09/21 06:04:22;;;;;;;1.10;1.00;;;;;;;20.85;61.54;99666.59;4989552;28;20034;-58
2023/09/21 06:06:48;;;;;;;1.27;1.05;;;;;;;20.86;61.72;99665.56;4987493;28;20495;-58
2023/09/21 06:09:19;;;;;;;1.52;1.25;;;;;;;20.86;61.76;99671.78;4990618;28;20083;-59
2023/09/21 06:11:45;;;;;;;1.27;1.17;;;;;;;20.85;61.79;99670.13;4988119;28;20038;-58
2023/09/21 06:14:11;;;;;;;2.20;1.40;;;;;;;20.86;61.73;99679.09;4982724;28;20103;-58
2023/09/21 06:16:36;;;;;;;1.20;1.10;;;;;;;20.85;61.53;99678.25;4980706;28;20114;-58
2023/09/21 06:19:02;;;;;;;1.50;1.00;;;;;;;20.86;61.83;99679.09;4987025;28;20037;-59
2023/09/21 06:21:28;;;;;;;1.35;1.25;;;;;;;20.86;61.58;99684.50;4983466;28;20029;-58
2023/09/21 06:23:54;;;;;;;1.08;1.00;;;;;;;20.85;61.87;99685.53;4986497;28;20093;-58
2023/09/21 06:26:21;;;;;;;1.83;1.30;;;;;;;20.86;61.60;99689.91;4989851;28;20413;-58
2023/09/21 06:28:49;;;;;;;1.00;1.00;;;;;;;20.85;61.49;99682.84;4983605;28;20034;-58
2023/09/21 06:31:21;;;;;;;1.15;1.05;;;;;;;20.85;61.48;99683.66;4992348;28;20133;-58
2023/09/21 06:33:47;;;;;;;1.67;1.35;;;;;;;20.85;61.36;99683.66;4984742;28;20031;-58
2023/09/21 06:36:20;;;;;;;1.55;1.05;;;;;;;20.86;61.60;99681.78;4985218;28;20042;-58
2023/09/21 06:38:50;;;;;;;1.25;1.13;;;;;;;20.85;61.47;99680.97;4989499;28;20027;-58
2023/09/21 06:41:16;;;;;;;1.30;1.20;;;;;;;20.84;61.83;99690.09;4984594;28;20026;-58
2023/09/21 06:43:43;;;;;;;1.38;1.17;;;;;;;20.85;61.43;99690.97;4984547;28;20030;-58
2023/09/21 06:46:09;;;;;;;1.58;1.25;;;;;;;20.85;61.97;99683.66;4987973;28;20552;-58
2023/09/21 06:48:35;;;;;;;1.85;1.23;;;;;;;20.84;61.36;99681.97;4987312;28;20485;-58
2023/09/21 06:51:00;;;;;;;1.40;1.10;;;;;;;20.85;61.83;99688.25;4984700;28;20092;-58
2023/09/21 06:53:28;;;;;;;1.75;1.40;;;;;;;20.85;62.00;99699.06;4985616;28;20045;-58
2023/09/21 06:55:55;;;;;;;1.45;1.35;;;;;;;20.85;61.49;99701.78;4983711;28;20085;-57
2023/09/21 06:58:20;;;;;;;1.30;1.20;;;;;;;20.84;61.52;99698.22;4986342;28;20034;-58
2023/09/21 07:00:46;;;;;;;2.50;1.50;;;;;;;20.84;61.73;99700.09;4987184;28;20503;-57
2023/09/21 07:03:12;;;;;;;1.67;1.23;;;;;;;20.84;61.81;99717.16;4987376;28;20046;-57
2023/09/21 07:05:40;;;;;;;1.10;1.00;;;;;;;20.84;61.54;99711.75;4993973;28;20038;-56
2023/09/21 07:08:06;;;;;;;2.15;1.40;;;;;;;20.84;61.59;99708.22;4984253;28;20035;-56
2023/09/21 07:10:32;;;;;;;1.30;1.20;;;;;;;20.85;61.59;99710.72;4990292;28;20038;-56
2023/09/21 07:12:58;;;;;;;1.25;1.15;;;;;;;20.85;61.91;99712.59;4987260;28;20026;-56
2023/09/21 07:15:23;;;;;;;1.30;1.20;;;;;;;20.84;61.68;99702.78;4985255;28;20503;-56
2023/09/21 07:17:50;;;;;;;1.95;1.38;;;;;;;20.83;61.91;99701.97;4993360;28;20113;-56
2023/09/21 07:20:22;;;;;;;1.58;1.48;;;;;;;20.83;61.73;99698.44;4980959;28;20023;-56
2023/09/21 07:22:49;;;;;;;1.40;1.30;;;;;;;20.84;61.58;99698.22;4983950;28;20029;-57
2023/09/21 07:25:14;;;;;;;1.73;1.13;;;;;;;20.84;61.57;99694.69;4986172;28;20030;-56
2023/09/21 07:27:40;;;;;;;1.48;1.27;;;;;;;20.85;61.52;99690.97;4987480;28;20041;-56
2023/09/21 07:30:06;;;;;;;1.52;1.20;;;;;;;20.84;61.80;99690.09;4990411;28;20031;-56
2023/09/21 07:32:32;;;;;;;1.63;1.25;;;;;;;20.84;61.96;99690.09;4990584;28;20053;-56
2023/09/21 07:34:58;;;;;;;1.35;1.20;;;;;;;20.84;61.91;99689.25;4990811;28;20533;-56
2023/09/21 07:37:23;;;;;;;2.45;1.60;;;;;;;20.83;61.67;99688.44;4990938;28;20105;-56
2023/09/21 07:39:49;;;;;;;1.52;1.25;;;;;;;20.83;61.80;99693.03;4990283;28;20128;-56
2023/09/21 07:42:15;;;;;;;2.17;1.33;;;;;;;20.84;62.20;99694.69;4988571;28;20037;-57
2023/09/21 07:44:44;;;;;;;1.55;1.30;;;;;;;20.84;61.66;99700.91;4990927;28;20026;-56
2023/09/21 07:47:10;;;;;;;1.58;1.27;;;;;;;20.83;61.78;99701.97;4991878;28;20034;-56
2023/09/21 07:49:35;;;;;;;1.42;1.20;;;;;;;20.83;62.08;99704.66;4994238;28;20038;-56
2023/09/21 07:52:01;;;;;;;1.50;1.40;;;;;;;20.83;61.87;99701.13;4988603;28;20027;-56
2023/09/21 07:54:27;;;;;;;1.38;1.27;;;;;;;20.83;62.12;99698.44;4988133;28;20030;-56
2023/09/21 07:56:53;;;;;;;0.90;0.90;;;;;;;20.83;61.73;99704.66;4993645;28;20030;-56
2023/09/21 07:59:18;;;;;;;1.77;1.45;;;;;;;20.83;62.18;99706.56;4990552;28;20042;-56
2023/09/21 08:01:44;;;;;;;2.63;1.30;;;;;;;20.83;62.24;99709.25;4983266;28;20035;-56
2023/09/21 08:04:10;;;;;;;1.48;1.27;;;;;;;20.82;61.72;99713.81;4996009;28;20038;-56
2023/09/21 08:06:35;;;;;;;1.67;1.30;;;;;;;20.83;61.62;99720.06;4986093;28;20050;-56
2023/09/21 08:09:01;;;;;;;2.42;1.13;;;;;;;20.83;61.66;99717.38;4986038;28;20038;-57
2023/09/21 08:11:26;;;;;;;1.50;1.40;;;;;;;20.82;61.88;99721.91;4990945;28;20401;-56
2023/09/21 08:13:52;;;;;;;1.40;1.30;;;;;;;20.82;61.66;99724.63;4987614;28;20026;-56
2023/09/21 08:16:17;;;;;;;1.35;1.20;;;;;;;20.82;61.93;99740.03;4992897;28;20034;-56
2023/09/21 08:18:42;;;;;;;2.05;1.52;;;;;;;20.83;62.31;99741.72;4987324;28;20070;-56
2023/09/21 08:21:11;;;;;;;1.58;1.33;;;;;;;20.82;61.98;99740.84;4988834;28;20472;-57
2023/09/21 08:23:36;;;;;;;1.35;1.25;;;;;;;20.82;62.33;99740.84;4988886;28;20113;-56
2023/09/21 08:26:06;;;;;;;1.25;1.15;;;;;;;20.81;62.32;99739.19;4988337;28;20103;-57
2023/09/21 08:28:31;;;;;;;2.28;1.33;;;;;;;20.81;61.96;99741.03;4990720;28;20049;-57
2023/09/21 08:30:57;;;;;;;2.05;1.48;;;;;;;20.81;61.96;99751.88;4989939;28;20064;-56
2023/09/21 08:33:23;;;;;;;2.58;1.58;;;;;;;20.82;62.02;99753.56;4985792;28;20513;-57
2023/09/21 08:35:49;;;;;;;1.80;1.48;;;;;;;20.81;61.87;99765.41;4987710;28;20022;-56
2023/09/21 08:38:15;;;;;;;1.35;1.10;;;;;;;20.82;61.88;99769.78;4989557;28;20050;-57
2023/09/21 08:40:43;;;;;;;1.98;1.13;;;;;;;20.81;62.43;99776.22;4990214;28;20485;-56
2023/09/21 08:43:22;;;;;;;1.30;1.20;;;;;;;20.80;62.02;99777.25;4985814;28;20022;-57
2023/09/21 08:45:50;;;;;;;1.58;1.48;;;;;;;20.81;61.97;99768.97;4982413;28;20490;-57
2023/09/21 08:48:19;;;;;;;1.50;1.40;;;;;;;20.81;62.06;99776.22;4994838;28;20045;-57
2023/09/21 08:50:48;;;;;;;1.67;1.58;;;;;;;20.81;62.54;99784.34;4985024;28;20031;-56
2023/09/21 08:53:18;;;;;;;1.85;1.50;;;;;;;20.81;61.93;99795.16;4984522;28;20489;-57
2023/09/21 08:55:48;;;;;;;1.40;1.30;;;;;;;20.81;62.02;99795.16;4989873;28;20034;-56
2023/09/21 08:58:20;;;;;;;2.10;1.50;;;;;;;20.80;62.00;99799.72;4986961;28;20514;-57
2023/09/21 09:00:46;;;;;;;1.42;1.17;;;;;;;20.81;61.90;99797.84;4988966;28;20117;-57
2023/09/21 09:03:12;;;;;;;1.27;0.90;;;;;;;20.80;62.12;99797.03;4988683;28;20492;-56
2023/09/21 09:05:38;;;;;;;1.58;1.13;;;;;;;20.80;61.84;99788.09;4990033;28;20118;-57
2023/09/21 09:08:04;;;;;;;1.52;1.30;;;;;;;20.80;62.03;99794.31;4984235;28;20042;-56
2023/09/21 09:10:29;;;;;;;1.60;1.50;;;;;;;20.81;62.45;99789.75;4989748;28;20389;-57
2023/09/21 09:13:08;;;;;;;1.15;1.05;;;;;;;20.80;62.23;99780.78;4987748;28;20388;-57
2023/09/21 09:15:34;;;;;;;2.42;1.52;;;;;;;20.80;62.32;99779.97;4992370;28;20453;-57
2023/09/21 09:18:03;;;;;;;1.40;1.30;;;;;;;20.80;62.42;99796.19;4988083;28;20030;-57
2023/09/21 09:20:32;;;;;;;1.10;1.00;;;;;;;20.80;62.03;99801.59;4988602;28;20083;-57
2023/09/21 09:23:01;;;;;;;1.17;1.08;;;;;;;20.80;62.46;99798.91;4990121;28;20090;-57
2023/09/21 09:25:26;;;;;;;2.40;1.55;;;;;;;20.80;62.53;99796.19;4984510;28;20039;-56
2023/09/21 09:27:52;;;;;;;2.15;1.60;;;;;;;20.80;62.28;99791.63;4994335;28;20081;-57
2023/09/21 09:30:20;;;;;;;1.92;1.38;;;;;;;20.80;62.31;99782.66;4982955;28;20440;-56
2023/09/21 09:32:47;;;;;;;1.38;1.20;;;;;;;20.80;62.53;99755.63;4986368;28;20089;-56
2023/09/21 09:35:13;;;;;;;1.70;1.50;;;;;;;20.80;62.21;99778.09;4989043;28;20030;-57
2023/09/21 09:37:40;;;;;;;2.25;1.60;;;;;;;20.80;62.28;99766.44;4986009;28;20030;-57
2023/09/21 09:40:24;;;;;;;1.80;1.42;;;;;;;20.80;62.57;99769.16;4991891;28;20030;-57
2023/09/21 09:42:53;;;;;;;1.65;1.30;;;;;;;20.81;62.16;99762.69;4984692;28;20058;-57
2023/09/21 09:45:25;;;;;;;2.05;1.52;;;;;;;20.80;62.33;99767.28;4999083;28;20109;-57
2023/09/21 09:48:01;;;;;;;1.80;1.40;;;;;;;20.82;62.32;99769.78;4985528;28;20026;-57
2023/09/21 09:50:33;;;;;;;1.10;0.95;;;;;;;20.81;62.56;99770.81;4983831;28;20062;-56
2023/09/21 09:53:07;;;;;;;1.50;1.20;;;;;;;20.81;62.25;99768.97;4982958;28;20424;-56
2023/09/21 09:55:35;;;;;;;2.00;1.10;;;;;;;20.81;62.43;99776.22;4993454;28;20037;-56
2023/09/21 09:58:01;;;;;;;2.10;1.40;;;;;;;20.82;62.42;99772.50;4986522;28;20037;-56
2023/09/21 10:00:28;;;;;;;1.10;1.00;;;;;;;20.81;62.98;99768.09;4991868;28;20053;-57
2023/09/21 10:02:57;;;;;;;1.33;1.23;;;;;;;20.81;62.64;99762.69;4985522;28;20058;-57
2023/09/21 10:05:27;;;;;;;1.30;1.20;;;;;;;20.80;62.88;99758.31;4986363;28;20378;-57
2023/09/21 10:07:56;;;;;;;1.10;1.00;;;;;;;20.81;62.35;99752.72;4991725;28;20027;-57
2023/09/21 10:10:25;;;;;;;1.00;0.93;;;;;;;20.82;62.85;99750.84;4986209;28;20173;-57
2023/09/21 10:12:52;;;;;;;2.00;1.40;;;;;;;20.81;62.63;99751.88;4985333;28;20030;-57
2023/09/21 10:15:22;;;;;;;1.60;1.10;;;;;;;20.81;62.92;99738.34;4989872;28;20141;-57
2023/09/21 10:17:50;;;;;;;1.10;0.80;;;;;;;20.82;62.71;99740.03;4987118;28;20035;-57
2023/09/21 10:20:24;;;;;;;0.80;0.80;;;;;;;20.80;62.47;99740.22;4987901;28;20384;-56
2023/09/21 10:22:51;;;;;;;2.60;1.40;;;;;;;20.81;62.53;99738.34;4986150;28;20112;-57
2023/09/21 10:25:35;;;;;;;1.92;1.42;;;;;;;20.81;62.47;99736.50;4987003;28;20042;-57
2023/09/21 10:28:00;;;;;;;4.32;1.30;;;;;;;20.81;62.53;99738.34;4985356;28;20062;-56
2023/09/21 10:30:26;;;;;;;2.47;1.20;;;;;;;20.83;62.65;99744.44;4982931;28;20070;-57
2023/09/21 10:32:51;;;;;;;0.93;0.88;;;;;;;20.83;62.89;99741.72;4983822;28;20367;-57
2023/09/21 10:35:42;;;;;;;2.78;1.38;;;;;;;20.82;62.95;99737.31;4983088;28;20042;-56
2023/09/21 10:38:26;;;;;;;1.30;1.05;;;;;;;20.84;62.93;99738.78;4983870;28;20034;-56
2023/09/21 10:40:52;;;;;;;1.80;1.08;;;;;;;20.83;62.83;99736.31;4980479;28;20041;-57
2023/09/21 10:43:36;;;;;;;1.02;0.93;;;;;;;20.85;63.12;99726.13;4989478;28;20068;-57
2023/09/21 10:46:03;;;;;;;1.00;0.90;;;;;;;20.82;62.81;99726.50;4987058;28;20076;-57
2023/09/21 10:48:29;;;;;;;1.38;1.10;;;;;;;20.83;62.77;99717.38;4991589;28;20039;-56
2023/09/21 10:50:56;;;;;;;1.50;1.20;;;;;;;20.82;62.89;99721.91;4986396;28;20042;-56
2023/09/21 10:53:23;;;;;;;1.05;0.90;;;;;;;20.82;62.93;99715.69;4985300;28;20030;-57
2023/09/21 10:55:48;;;;;;;1.10;1.00;;;;;;;20.82;63.58;99704.84;4983341;28;20034;-57
2023/09/21 10:58:17;;;;;;;1.95;0.98;;;;;;;20.82;63.09;99704.84;4978916;28;20039;-57
2023/09/21 11:00:43;;;;;;;3.90;1.10;;;;;;;20.82;63.69;99713.81;4990434;28;20030;-57
2023/09/21 11:03:11;;;;;;;1.58;0.88;;;;;;;20.82;63.71;99694.88;4982806;28;20405;-57
2023/09/21 11:05:37;;;;;;;3.08;1.30;;;;;;;20.83;63.91;99687.59;4994267;28;20036;-57
2023/09/21 11:08:03;;;;;;;2.40;1.13;;;;;;;20.82;63.63;99681.34;4988650;28;20053;-56
2023/09/21 11:10:30;;;;;;;1.27;1.08;;;;;;;20.83;63.09;99679.50;4989251;28;20468;-56
2023/09/21 11:12:56;;;;;;;2.70;0.90;;;;;;;20.83;63.72;99674.09;4992491;28;20038;-56
2023/09/21 11:15:22;;;;;;;1.45;0.85;;;;;;;20.84;63.88;99675.75;4989668;28;20323;-57
2023/09/21 11:17:51;;;;;;;3.53;1.10;;;;;;;20.84;63.30;99678.44;4988498;28;20392;-57
2023/09/21 11:20:19;;;;;;;1.50;0.95;;;;;;;20.84;63.90;99678.44;4991759;28;20042;-57
2023/09/21 11:22:46;;;;;;;3.00;0.90;;;;;;;20.83;63.77;99671.38;4988519;28;20053;-57
2023/09/21 11:25:14;;;;;;;2.50;1.00;;;;;;;20.84;63.92;99670.34;4984045;28;20042;-57
2023/09/21 11:27:41;;;;;;;1.25;1.05;;;;;;;20.83;63.45;99660.56;4989218;28;20021;-57
2023/09/21 11:30:10;;;;;;;0.98;0.90;;;;;;;20.83;63.70;99666.78;4989110;28;20381;-56
2023/09/21 11:32:57;;;;;;;2.15;1.38;;;;;;;20.86;63.94;99673.69;4990330;28;20030;-57
2023/09/21 11:35:23;;;;;;;2.10;0.80;;;;;;;20.83;63.97;99685.72;4985464;28;20125;-57